Terminal Aerodrome Forecast
Issued by NWS

Home | Current Version | Previous Version | Text Only | Print | Product List | Glossary On
Versions: 1 2 3 4 5 6 7 8 9 10 11 12 13 14
000
FTUS43 KICT 032328
TAFSLN
TAF
KSLN 032328Z 0400/0424 31009KT P6SM SCT060
     FM040500 27006KT P6SM SKC
     FM041200 34012KT P6SM SKC
     FM041600 36014G20KT P6SM SKC=

USA.gov is the U.S. government's official web portal to all federal, state and local government web resources and services.